sensor_id;sensor_type;location;lat;lon;timestamp;P1;durP1;ratioP1;P2;durP2;ratioP2
15567;SDS011;7885;42.596;23.044;2023-02-28T00:01:29;34.03;;;24.10;;
15567;SDS011;7885;42.596;23.044;2023-02-28T00:03:57;28.33;;;22.60;;
15567;SDS011;7885;42.596;23.044;2023-02-28T00:06:24;28.87;;;21.03;;
15567;SDS011;7885;42.596;23.044;2023-02-28T00:08:50;27.47;;;20.10;;
15567;SDS011;7885;42.596;23.044;2023-02-28T00:11:17;23.93;;;17.63;;
15567;SDS011;7885;42.596;23.044;2023-02-28T00:13:45;22.60;;;16.03;;
15567;SDS011;7885;42.596;23.044;2023-02-28T00:16:14;20.00;;;16.63;;
15567;SDS011;7885;42.596;23.044;2023-02-28T00:18:42;19.50;;;15.10;;
15567;SDS011;7885;42.596;23.044;2023-02-28T00:21:10;26.77;;;18.47;;
15567;SDS011;7885;42.596;23.044;2023-02-28T00:23:37;27.17;;;17.43;;
15567;SDS011;7885;42.596;23.044;2023-02-28T00:26:04;18.27;;;9.83;;
15567;SDS011;7885;42.596;23.044;2023-02-28T00:28:31;22.30;;;13.93;;
15567;SDS011;7885;42.596;23.044;2023-02-28T00:30:57;29.20;;;17.57;;
15567;SDS011;7885;42.596;23.044;2023-02-28T00:33:25;18.60;;;12.20;;
15567;SDS011;7885;42.596;23.044;2023-02-28T00:35:52;16.37;;;11.03;;
15567;SDS011;7885;42.596;23.044;2023-02-28T00:38:28;23.97;;;14.10;;
15567;SDS011;7885;42.596;23.044;2023-02-28T00:40:54;22.83;;;15.80;;
15567;SDS011;7885;42.596;23.044;2023-02-28T00:43:21;19.87;;;14.67;;
15567;SDS011;7885;42.596;23.044;2023-02-28T00:45:48;24.90;;;15.93;;
15567;SDS011;7885;42.596;23.044;2023-02-28T00:48:15;23.73;;;16.60;;
15567;SDS011;7885;42.596;23.044;2023-02-28T00:50:41;20.47;;;14.07;;
15567;SDS011;7885;42.596;23.044;2023-02-28T00:53:08;16.37;;;12.00;;
15567;SDS011;7885;42.596;23.044;2023-02-28T00:55:36;13.67;;;11.90;;
15567;SDS011;7885;42.596;23.044;2023-02-28T00:58:03;14.47;;;8.77;;
15567;SDS011;7885;42.596;23.044;2023-02-28T01:00:29;34.23;;;19.27;;
15567;SDS011;7885;42.596;23.044;2023-02-28T01:02:56;11.83;;;8.80;;
15567;SDS011;7885;42.596;23.044;2023-02-28T01:05:23;14.60;;;9.10;;
15567;SDS011;7885;42.596;23.044;2023-02-28T01:07:50;10.33;;;5.40;;
15567;SDS011;7885;42.596;23.044;2023-02-28T01:10:16;12.57;;;8.50;;
15567;SDS011;7885;42.596;23.044;2023-02-28T01:12:44;18.13;;;12.50;;
15567;SDS011;7885;42.596;23.044;2023-02-28T01:15:11;20.67;;;15.20;;
15567;SDS011;7885;42.596;23.044;2023-02-28T01:17:38;19.80;;;15.03;;
15567;SDS011;7885;42.596;23.044;2023-02-28T01:20:05;20.00;;;15.30;;
15567;SDS011;7885;42.596;23.044;2023-02-28T01:22:34;21.23;;;15.03;;
15567;SDS011;7885;42.596;23.044;2023-02-28T01:25:00;23.30;;;15.63;;
15567;SDS011;7885;42.596;23.044;2023-02-28T01:27:27;26.97;;;18.23;;
15567;SDS011;7885;42.596;23.044;2023-02-28T01:29:55;24.73;;;16.87;;
15567;SDS011;7885;42.596;23.044;2023-02-28T01:32:22;25.80;;;18.03;;
15567;SDS011;7885;42.596;23.044;2023-02-28T01:34:48;30.37;;;20.07;;
15567;SDS011;7885;42.596;23.044;2023-02-28T01:37:15;24.77;;;14.80;;
15567;SDS011;7885;42.596;23.044;2023-02-28T01:39:42;38.20;;;14.30;;
15567;SDS011;7885;42.596;23.044;2023-02-28T01:42:08;44.73;;;12.80;;
15567;SDS011;7885;42.596;23.044;2023-02-28T01:44:57;94.20;;;11.23;;
15567;SDS011;7885;42.596;23.044;2023-02-28T01:47:27;72.27;;;13.13;;
15567;SDS011;7885;42.596;23.044;2023-02-28T01:49:57;140.30;;;14.03;;
15567;SDS011;7885;42.596;23.044;2023-02-28T01:52:26;93.47;;;13.23;;
15567;SDS011;7885;42.596;23.044;2023-02-28T01:54:55;69.30;;;13.03;;
15567;SDS011;7885;42.596;23.044;2023-02-28T01:57:25;33.77;;;12.87;;
15567;SDS011;7885;42.596;23.044;2023-02-28T01:59:57;20.00;;;10.47;;
15567;SDS011;7885;42.596;23.044;2023-02-28T02:02:32;23.33;;;13.07;;
15567;SDS011;7885;42.596;23.044;2023-02-28T02:05:00;48.30;;;21.17;;
15567;SDS011;7885;42.596;23.044;2023-02-28T02:07:31;48.47;;;16.70;;
15567;SDS011;7885;42.596;23.044;2023-02-28T02:10:01;52.43;;;15.47;;
15567;SDS011;7885;42.596;23.044;2023-02-28T02:12:32;40.53;;;14.40;;
15567;SDS011;7885;42.596;23.044;2023-02-28T02:15:18;79.63;;;16.63;;
15567;SDS011;7885;42.596;23.044;2023-02-28T02:17:51;77.80;;;15.23;;
15567;SDS011;7885;42.596;23.044;2023-02-28T02:26:17;86.97;;;14.30;;
15567;SDS011;7885;42.596;23.044;2023-02-28T02:29:09;96.80;;;13.93;;
15567;SDS011;7885;42.596;23.044;2023-02-28T02:32:01;134.40;;;14.80;;
15567;SDS011;7885;42.596;23.044;2023-02-28T02:34:52;203.97;;;17.87;;
15567;SDS011;7885;42.596;23.044;2023-02-28T02:37:26;141.57;;;17.10;;
15567;SDS011;7885;42.596;23.044;2023-02-28T02:40:00;83.83;;;17.40;;
15567;SDS011;7885;42.596;23.044;2023-02-28T02:42:31;121.77;;;16.93;;
15567;SDS011;7885;42.596;23.044;2023-02-28T02:45:08;58.40;;;17.27;;
15567;SDS011;7885;42.596;23.044;2023-02-28T02:47:38;67.43;;;16.13;;
15567;SDS011;7885;42.596;23.044;2023-02-28T02:50:08;153.40;;;15.53;;
15567;SDS011;7885;42.596;23.044;2023-02-28T02:52:40;108.60;;;13.87;;
15567;SDS011;7885;42.596;23.044;2023-02-28T02:55:11;140.43;;;14.23;;
15567;SDS011;7885;42.596;23.044;2023-02-28T02:57:42;145.80;;;14.10;;
15567;SDS011;7885;42.596;23.044;2023-02-28T03:00:14;177.00;;;14.43;;
15567;SDS011;7885;42.596;23.044;2023-02-28T03:02:43;110.80;;;14.60;;
15567;SDS011;7885;42.596;23.044;2023-02-28T03:05:14;110.47;;;14.27;;
15567;SDS011;7885;42.596;23.044;2023-02-28T03:07:45;283.87;;;18.30;;
15567;SDS011;7885;42.596;23.044;2023-02-28T03:10:32;112.23;;;14.73;;
15567;SDS011;7885;42.596;23.044;2023-02-28T03:13:05;148.40;;;16.00;;
15567;SDS011;7885;42.596;23.044;2023-02-28T03:15:44;182.67;;;15.70;;
15567;SDS011;7885;42.596;23.044;2023-02-28T03:18:24;183.77;;;14.87;;
15567;SDS011;7885;42.596;23.044;2023-02-28T03:21:06;270.00;;;16.10;;
15567;SDS011;7885;42.596;23.044;2023-02-28T03:23:43;124.50;;;14.73;;
15567;SDS011;7885;42.596;23.044;2023-02-28T03:26:17;100.60;;;14.33;;
15567;SDS011;7885;42.596;23.044;2023-02-28T03:28:50;174.97;;;15.83;;
15567;SDS011;7885;42.596;23.044;2023-02-28T03:31:26;202.97;;;16.43;;
15567;SDS011;7885;42.596;23.044;2023-02-28T03:33:58;292.23;;;18.07;;
15567;SDS011;7885;42.596;23.044;2023-02-28T03:36:32;157.33;;;16.90;;
15567;SDS011;7885;42.596;23.044;2023-02-28T03:39:09;173.77;;;16.77;;
15567;SDS011;7885;42.596;23.044;2023-02-28T03:41:40;158.40;;;17.17;;
15567;SDS011;7885;42.596;23.044;2023-02-28T03:44:11;213.73;;;18.13;;
15567;SDS011;7885;42.596;23.044;2023-02-28T03:46:44;166.97;;;15.43;;
15567;SDS011;7885;42.596;23.044;2023-02-28T03:49:15;127.70;;;16.30;;
15567;SDS011;7885;42.596;23.044;2023-02-28T03:51:46;164.43;;;16.50;;
15567;SDS011;7885;42.596;23.044;2023-02-28T03:54:16;142.70;;;14.20;;
15567;SDS011;7885;42.596;23.044;2023-02-28T03:56:48;88.30;;;14.50;;
15567;SDS011;7885;42.596;23.044;2023-02-28T03:59:21;76.30;;;15.70;;
15567;SDS011;7885;42.596;23.044;2023-02-28T04:01:51;110.20;;;16.07;;
15567;SDS011;7885;42.596;23.044;2023-02-28T04:04:20;107.00;;;20.00;;
15567;SDS011;7885;42.596;23.044;2023-02-28T04:06:50;95.87;;;25.07;;
15567;SDS011;7885;42.596;23.044;2023-02-28T04:09:17;119.30;;;14.70;;
15567;SDS011;7885;42.596;23.044;2023-02-28T04:11:44;182.73;;;13.97;;
15567;SDS011;7885;42.596;23.044;2023-02-28T04:14:16;35.87;;;11.10;;
15567;SDS011;7885;42.596;23.044;2023-02-28T04:16:43;47.33;;;16.60;;
15567;SDS011;7885;42.596;23.044;2023-02-28T04:19:10;103.33;;;16.40;;
15567;SDS011;7885;42.596;23.044;2023-02-28T04:21:39;53.43;;;11.97;;
15567;SDS011;7885;42.596;23.044;2023-02-28T04:24:08;111.10;;;13.30;;
15567;SDS011;7885;42.596;23.044;2023-02-28T04:26:39;110.87;;;13.20;;
15567;SDS011;7885;42.596;23.044;2023-02-28T04:29:08;101.27;;;13.23;;
15567;SDS011;7885;42.596;23.044;2023-02-28T04:31:36;103.27;;;12.63;;
15567;SDS011;7885;42.596;23.044;2023-02-28T04:34:03;109.47;;;11.93;;
15567;SDS011;7885;42.596;23.044;2023-02-28T04:36:30;67.17;;;11.60;;
15567;SDS011;7885;42.596;23.044;2023-02-28T04:38:57;111.53;;;14.73;;
15567;SDS011;7885;42.596;23.044;2023-02-28T04:41:25;128.27;;;14.53;;
15567;SDS011;7885;42.596;23.044;2023-02-28T04:43:52;62.43;;;12.70;;
15567;SDS011;7885;42.596;23.044;2023-02-28T04:46:19;115.40;;;14.20;;
15567;SDS011;7885;42.596;23.044;2023-02-28T04:48:46;99.70;;;16.88;;
15567;SDS011;7885;42.596;23.044;2023-02-28T04:51:13;57.97;;;17.13;;
15567;SDS011;7885;42.596;23.044;2023-02-28T04:53:42;65.17;;;17.47;;
15567;SDS011;7885;42.596;23.044;2023-02-28T04:56:10;137.03;;;19.50;;
15567;SDS011;7885;42.596;23.044;2023-02-28T04:58:40;90.33;;;17.13;;
15567;SDS011;7885;42.596;23.044;2023-02-28T05:01:15;93.87;;;15.20;;
15567;SDS011;7885;42.596;23.044;2023-02-28T05:03:44;119.97;;;18.60;;
15567;SDS011;7885;42.596;23.044;2023-02-28T05:06:11;107.10;;;16.33;;
15567;SDS011;7885;42.596;23.044;2023-02-28T05:08:39;119.80;;;16.97;;
15567;SDS011;7885;42.596;23.044;2023-02-28T05:11:07;106.73;;;15.23;;
15567;SDS011;7885;42.596;23.044;2023-02-28T05:13:41;127.63;;;17.00;;
15567;SDS011;7885;42.596;23.044;2023-02-28T05:16:08;127.50;;;16.67;;
15567;SDS011;7885;42.596;23.044;2023-02-28T05:18:34;182.43;;;17.30;;
15567;SDS011;7885;42.596;23.044;2023-02-28T05:21:01;77.30;;;16.47;;
15567;SDS011;7885;42.596;23.044;2023-02-28T05:23:28;260.40;;;17.57;;
15567;SDS011;7885;42.596;23.044;2023-02-28T05:25:55;224.47;;;19.57;;
15567;SDS011;7885;42.596;23.044;2023-02-28T05:28:22;337.10;;;21.43;;
15567;SDS011;7885;42.596;23.044;2023-02-28T05:30:50;309.07;;;21.43;;
15567;SDS011;7885;42.596;23.044;2023-02-28T05:33:17;146.53;;;17.70;;
15567;SDS011;7885;42.596;23.044;2023-02-28T05:35:44;99.47;;;13.47;;
15567;SDS011;7885;42.596;23.044;2023-02-28T05:38:11;86.40;;;11.90;;
15567;SDS011;7885;42.596;23.044;2023-02-28T05:40:38;155.73;;;14.13;;
15567;SDS011;7885;42.596;23.044;2023-02-28T05:43:05;239.53;;;16.97;;
15567;SDS011;7885;42.596;23.044;2023-02-28T05:45:32;89.10;;;21.57;;
15567;SDS011;7885;42.596;23.044;2023-02-28T05:48:00;153.30;;;18.07;;
15567;SDS011;7885;42.596;23.044;2023-02-28T05:50:26;108.07;;;17.20;;
15567;SDS011;7885;42.596;23.044;2023-02-28T05:52:53;225.83;;;19.50;;
15567;SDS011;7885;42.596;23.044;2023-02-28T05:55:20;106.03;;;18.10;;
15567;SDS011;7885;42.596;23.044;2023-02-28T05:57:46;60.57;;;17.17;;
15567;SDS011;7885;42.596;23.044;2023-02-28T06:00:13;57.63;;;17.80;;
15567;SDS011;7885;42.596;23.044;2023-02-28T06:02:42;141.87;;;17.97;;
15567;SDS011;7885;42.596;23.044;2023-02-28T06:05:13;42.30;;;16.37;;
15567;SDS011;7885;42.596;23.044;2023-02-28T06:07:40;39.97;;;16.03;;
15567;SDS011;7885;42.596;23.044;2023-02-28T06:10:07;85.13;;;16.40;;
15567;SDS011;7885;42.596;23.044;2023-02-28T06:12:35;31.27;;;14.87;;
15567;SDS011;7885;42.596;23.044;2023-02-28T06:15:02;22.47;;;12.30;;
15567;SDS011;7885;42.596;23.044;2023-02-28T06:17:30;31.73;;;14.57;;
15567;SDS011;7885;42.596;23.044;2023-02-28T06:19:56;40.93;;;15.10;;
15567;SDS011;7885;42.596;23.044;2023-02-28T06:22:24;27.73;;;16.13;;
15567;SDS011;7885;42.596;23.044;2023-02-28T06:24:51;36.67;;;16.87;;
15567;SDS011;7885;42.596;23.044;2023-02-28T06:27:19;36.60;;;18.57;;
15567;SDS011;7885;42.596;23.044;2023-02-28T06:29:47;28.23;;;16.97;;
15567;SDS011;7885;42.596;23.044;2023-02-28T06:32:14;36.40;;;16.00;;
15567;SDS011;7885;42.596;23.044;2023-02-28T06:34:40;27.43;;;15.83;;
15567;SDS011;7885;42.596;23.044;2023-02-28T06:37:07;36.63;;;20.43;;
15567;SDS011;7885;42.596;23.044;2023-02-28T06:39:35;34.40;;;18.07;;
15567;SDS011;7885;42.596;23.044;2023-02-28T06:42:02;62.03;;;20.30;;
15567;SDS011;7885;42.596;23.044;2023-02-28T06:44:29;43.90;;;19.87;;
15567;SDS011;7885;42.596;23.044;2023-02-28T06:47:00;39.90;;;20.20;;
15567;SDS011;7885;42.596;23.044;2023-02-28T06:49:28;39.20;;;19.67;;
15567;SDS011;7885;42.596;23.044;2023-02-28T06:51:55;64.00;;;23.17;;
15567;SDS011;7885;42.596;23.044;2023-02-28T06:54:21;69.30;;;27.77;;
15567;SDS011;7885;42.596;23.044;2023-02-28T06:56:49;48.20;;;24.93;;
15567;SDS011;7885;42.596;23.044;2023-02-28T06:59:16;47.57;;;24.80;;
15567;SDS011;7885;42.596;23.044;2023-02-28T07:01:43;46.23;;;19.00;;
15567;SDS011;7885;42.596;23.044;2023-02-28T07:04:10;31.60;;;19.17;;
15567;SDS011;7885;42.596;23.044;2023-02-28T07:06:38;36.90;;;20.50;;
15567;SDS011;7885;42.596;23.044;2023-02-28T07:09:05;56.60;;;22.67;;
15567;SDS011;7885;42.596;23.044;2023-02-28T07:11:32;41.50;;;22.87;;
15567;SDS011;7885;42.596;23.044;2023-02-28T07:14:00;45.57;;;23.50;;
15567;SDS011;7885;42.596;23.044;2023-02-28T07:16:27;41.10;;;24.27;;
15567;SDS011;7885;42.596;23.044;2023-02-28T07:18:54;38.03;;;22.90;;
15567;SDS011;7885;42.596;23.044;2023-02-28T07:21:21;45.10;;;24.10;;
15567;SDS011;7885;42.596;23.044;2023-02-28T07:23:48;53.43;;;28.43;;
15567;SDS011;7885;42.596;23.044;2023-02-28T07:26:16;44.47;;;27.33;;
15567;SDS011;7885;42.596;23.044;2023-02-28T07:28:44;42.77;;;28.80;;
15567;SDS011;7885;42.596;23.044;2023-02-28T07:31:14;46.40;;;29.63;;
15567;SDS011;7885;42.596;23.044;2023-02-28T07:33:41;46.20;;;28.00;;
15567;SDS011;7885;42.596;23.044;2023-02-28T07:36:13;41.20;;;21.03;;
15567;SDS011;7885;42.596;23.044;2023-02-28T07:38:43;34.20;;;21.17;;
15567;SDS011;7885;42.596;23.044;2023-02-28T07:41:13;35.47;;;21.47;;
15567;SDS011;7885;42.596;23.044;2023-02-28T07:43:39;34.30;;;21.07;;
15567;SDS011;7885;42.596;23.044;2023-02-28T07:46:07;39.67;;;22.10;;
15567;SDS011;7885;42.596;23.044;2023-02-28T07:48:36;35.27;;;20.50;;
15567;SDS011;7885;42.596;23.044;2023-02-28T07:51:03;30.77;;;19.70;;
15567;SDS011;7885;42.596;23.044;2023-02-28T07:53:30;34.50;;;21.77;;
15567;SDS011;7885;42.596;23.044;2023-02-28T07:55:57;29.07;;;19.17;;
15567;SDS011;7885;42.596;23.044;2023-02-28T07:58:26;22.97;;;16.20;;
15567;SDS011;7885;42.596;23.044;2023-02-28T08:00:53;21.13;;;16.07;;
15567;SDS011;7885;42.596;23.044;2023-02-28T08:03:21;18.70;;;12.80;;
15567;SDS011;7885;42.596;23.044;2023-02-28T08:05:50;18.33;;;13.73;;
15567;SDS011;7885;42.596;23.044;2023-02-28T08:08:18;18.37;;;13.07;;
15567;SDS011;7885;42.596;23.044;2023-02-28T08:10:44;17.20;;;13.90;;
15567;SDS011;7885;42.596;23.044;2023-02-28T08:13:11;17.50;;;14.53;;
15567;SDS011;7885;42.596;23.044;2023-02-28T08:15:39;14.00;;;11.53;;
15567;SDS011;7885;42.596;23.044;2023-02-28T08:18:07;14.13;;;10.60;;
15567;SDS011;7885;42.596;23.044;2023-02-28T08:20:33;15.27;;;12.03;;
15567;SDS011;7885;42.596;23.044;2023-02-28T08:23:01;15.47;;;9.97;;
15567;SDS011;7885;42.596;23.044;2023-02-28T08:25:28;14.77;;;10.87;;
15567;SDS011;7885;42.596;23.044;2023-02-28T08:27:55;19.63;;;11.13;;
15567;SDS011;7885;42.596;23.044;2023-02-28T08:30:21;21.13;;;12.97;;
15567;SDS011;7885;42.596;23.044;2023-02-28T08:32:48;15.13;;;9.13;;
15567;SDS011;7885;42.596;23.044;2023-02-28T08:35:15;22.00;;;13.70;;
15567;SDS011;7885;42.596;23.044;2023-02-28T08:37:42;17.10;;;11.23;;
15567;SDS011;7885;42.596;23.044;2023-02-28T08:40:10;18.63;;;13.07;;
15567;SDS011;7885;42.596;23.044;2023-02-28T08:42:43;16.13;;;11.40;;
15567;SDS011;7885;42.596;23.044;2023-02-28T08:45:10;16.23;;;9.73;;
15567;SDS011;7885;42.596;23.044;2023-02-28T08:47:37;16.17;;;9.27;;
15567;SDS011;7885;42.596;23.044;2023-02-28T08:50:04;16.37;;;10.43;;
15567;SDS011;7885;42.596;23.044;2023-02-28T08:52:31;15.90;;;9.27;;
15567;SDS011;7885;42.596;23.044;2023-02-28T08:54:58;13.07;;;10.03;;
15567;SDS011;7885;42.596;23.044;2023-02-28T08:57:26;18.93;;;10.50;;
15567;SDS011;7885;42.596;23.044;2023-02-28T09:03:23;11.37;;;6.47;;
15567;SDS011;7885;42.596;23.044;2023-02-28T09:05:53;13.40;;;7.07;;
15567;SDS011;7885;42.596;23.044;2023-02-28T09:08:21;13.10;;;7.47;;
15567;SDS011;7885;42.596;23.044;2023-02-28T09:10:48;16.70;;;8.53;;
15567;SDS011;7885;42.596;23.044;2023-02-28T09:13:16;13.63;;;9.50;;
15567;SDS011;7885;42.596;23.044;2023-02-28T09:15:43;13.87;;;9.67;;
15567;SDS011;7885;42.596;23.044;2023-02-28T09:18:10;13.57;;;10.00;;
15567;SDS011;7885;42.596;23.044;2023-02-28T09:20:37;16.17;;;9.33;;
15567;SDS011;7885;42.596;23.044;2023-02-28T09:23:05;13.30;;;8.93;;
15567;SDS011;7885;42.596;23.044;2023-02-28T09:25:32;12.23;;;9.07;;
15567;SDS011;7885;42.596;23.044;2023-02-28T09:27:59;13.63;;;8.97;;
15567;SDS011;7885;42.596;23.044;2023-02-28T09:30:27;13.90;;;9.00;;
15567;SDS011;7885;42.596;23.044;2023-02-28T09:32:54;15.03;;;9.87;;
15567;SDS011;7885;42.596;23.044;2023-02-28T09:35:21;14.07;;;9.57;;
15567;SDS011;7885;42.596;23.044;2023-02-28T09:37:50;13.30;;;9.60;;
15567;SDS011;7885;42.596;23.044;2023-02-28T09:40:18;14.00;;;9.00;;
15567;SDS011;7885;42.596;23.044;2023-02-28T09:42:47;15.03;;;8.83;;
15567;SDS011;7885;42.596;23.044;2023-02-28T09:45:18;11.73;;;8.80;;
15567;SDS011;7885;42.596;23.044;2023-02-28T09:47:50;16.10;;;9.20;;
15567;SDS011;7885;42.596;23.044;2023-02-28T09:50:22;19.73;;;9.73;;
15567;SDS011;7885;42.596;23.044;2023-02-28T09:52:58;18.37;;;9.80;;
15567;SDS011;7885;42.596;23.044;2023-02-28T09:55:28;21.60;;;11.57;;
15567;SDS011;7885;42.596;23.044;2023-02-28T10:04:45;25.67;;;13.27;;
15567;SDS011;7885;42.596;23.044;2023-02-28T10:07:22;21.20;;;11.37;;
15567;SDS011;7885;42.596;23.044;2023-02-28T10:10:02;21.83;;;12.80;;
15567;SDS011;7885;42.596;23.044;2023-02-28T10:12:40;21.77;;;11.63;;
15567;SDS011;7885;42.596;23.044;2023-02-28T10:15:13;18.03;;;11.73;;
15567;SDS011;7885;42.596;23.044;2023-02-28T10:17:42;19.07;;;11.93;;
15567;SDS011;7885;42.596;23.044;2023-02-28T10:20:14;24.67;;;13.33;;
15567;SDS011;7885;42.596;23.044;2023-02-28T10:22:49;29.90;;;14.17;;
15567;SDS011;7885;42.596;23.044;2023-02-28T10:25:20;30.70;;;16.70;;
15567;SDS011;7885;42.596;23.044;2023-02-28T10:27:49;31.13;;;16.00;;
15567;SDS011;7885;42.596;23.044;2023-02-28T10:30:16;34.97;;;18.43;;
15567;SDS011;7885;42.596;23.044;2023-02-28T10:32:44;35.63;;;18.57;;
15567;SDS011;7885;42.596;23.044;2023-02-28T10:35:18;33.10;;;18.87;;
15567;SDS011;7885;42.596;23.044;2023-02-28T10:37:46;32.00;;;18.83;;
15567;SDS011;7885;42.596;23.044;2023-02-28T10:40:25;31.03;;;19.87;;
15567;SDS011;7885;42.596;23.044;2023-02-28T10:42:55;37.57;;;20.50;;
15567;SDS011;7885;42.596;23.044;2023-02-28T10:45:24;32.30;;;19.87;;
15567;SDS011;7885;42.596;23.044;2023-02-28T10:47:52;33.10;;;21.83;;
15567;SDS011;7885;42.596;23.044;2023-02-28T10:50:29;41.73;;;23.43;;
15567;SDS011;7885;42.596;23.044;2023-02-28T10:55:53;38.57;;;23.00;;
15567;SDS011;7885;42.596;23.044;2023-02-28T10:58:24;36.57;;;22.13;;
15567;SDS011;7885;42.596;23.044;2023-02-28T11:00:52;34.90;;;21.93;;
15567;SDS011;7885;42.596;23.044;2023-02-28T11:06:43;36.40;;;19.73;;
15567;SDS011;7885;42.596;23.044;2023-02-28T11:09:16;38.83;;;20.50;;
15567;SDS011;7885;42.596;23.044;2023-02-28T11:11:48;32.90;;;21.07;;
15567;SDS011;7885;42.596;23.044;2023-02-28T11:14:19;33.87;;;21.13;;
15567;SDS011;7885;42.596;23.044;2023-02-28T11:16:48;35.83;;;21.83;;
15567;SDS011;7885;42.596;23.044;2023-02-28T11:19:17;34.10;;;20.50;;
15567;SDS011;7885;42.596;23.044;2023-02-28T11:21:51;35.50;;;22.67;;
15567;SDS011;7885;42.596;23.044;2023-02-28T11:24:22;33.10;;;21.63;;
15567;SDS011;7885;42.596;23.044;2023-02-28T11:26:50;39.07;;;23.03;;
15567;SDS011;7885;42.596;23.044;2023-02-28T11:29:18;39.00;;;25.73;;
15567;SDS011;7885;42.596;23.044;2023-02-28T11:32:00;39.67;;;24.57;;
15567;SDS011;7885;42.596;23.044;2023-02-28T11:34:33;37.30;;;24.93;;
15567;SDS011;7885;42.596;23.044;2023-02-28T11:37:04;38.57;;;22.70;;
15567;SDS011;7885;42.596;23.044;2023-02-28T11:39:36;36.77;;;23.70;;
15567;SDS011;7885;42.596;23.044;2023-02-28T11:44:58;43.07;;;24.87;;
15567;SDS011;7885;42.596;23.044;2023-02-28T11:47:38;37.10;;;25.53;;
15567;SDS011;7885;42.596;23.044;2023-02-28T11:50:14;34.33;;;24.33;;
15567;SDS011;7885;42.596;23.044;2023-02-28T11:52:50;30.70;;;21.77;;
15567;SDS011;7885;42.596;23.044;2023-02-28T11:55:20;32.40;;;22.03;;
15567;SDS011;7885;42.596;23.044;2023-02-28T11:58:30;34.97;;;21.27;;
15567;SDS011;7885;42.596;23.044;2023-02-28T12:04:17;33.73;;;23.33;;
15567;SDS011;7885;42.596;23.044;2023-02-28T12:06:53;37.33;;;22.30;;
15567;SDS011;7885;42.596;23.044;2023-02-28T12:09:35;35.67;;;22.80;;
15567;SDS011;7885;42.596;23.044;2023-02-28T12:12:15;35.47;;;21.70;;
15567;SDS011;7885;42.596;23.044;2023-02-28T12:17:55;40.97;;;23.93;;
15567;SDS011;7885;42.596;23.044;2023-02-28T12:20:35;43.20;;;23.87;;
15567;SDS011;7885;42.596;23.044;2023-02-28T12:23:14;39.97;;;22.23;;
15567;SDS011;7885;42.596;23.044;2023-02-28T12:26:09;41.33;;;23.53;;
15567;SDS011;7885;42.596;23.044;2023-02-28T12:28:44;43.63;;;23.37;;
15567;SDS011;7885;42.596;23.044;2023-02-28T12:31:16;44.37;;;24.37;;
15567;SDS011;7885;42.596;23.044;2023-02-28T12:33:47;44.10;;;23.10;;
15567;SDS011;7885;42.596;23.044;2023-02-28T12:36:18;41.50;;;23.73;;
15567;SDS011;7885;42.596;23.044;2023-02-28T12:38:47;47.40;;;23.40;;
15567;SDS011;7885;42.596;23.044;2023-02-28T12:41:19;45.27;;;24.37;;
15567;SDS011;7885;42.596;23.044;2023-02-28T12:43:55;40.93;;;22.67;;
15567;SDS011;7885;42.596;23.044;2023-02-28T12:46:28;41.57;;;26.33;;
15567;SDS011;7885;42.596;23.044;2023-02-28T12:49:00;35.53;;;21.97;;
15567;SDS011;7885;42.596;23.044;2023-02-28T12:51:31;34.13;;;23.83;;
15567;SDS011;7885;42.596;23.044;2023-02-28T12:54:04;34.90;;;22.73;;
15567;SDS011;7885;42.596;23.044;2023-02-28T12:56:41;40.07;;;26.70;;
15567;SDS011;7885;42.596;23.044;2023-02-28T12:59:16;35.47;;;23.40;;
15567;SDS011;7885;42.596;23.044;2023-02-28T13:01:56;35.03;;;23.70;;
15567;SDS011;7885;42.596;23.044;2023-02-28T13:11:01;40.50;;;24.33;;
15567;SDS011;7885;42.596;23.044;2023-02-28T13:13:30;32.53;;;24.37;;
15567;SDS011;7885;42.596;23.044;2023-02-28T13:15:58;39.23;;;24.43;;
15567;SDS011;7885;42.596;23.044;2023-02-28T13:18:28;32.87;;;21.87;;
15567;SDS011;7885;42.596;23.044;2023-02-28T13:20:58;36.33;;;24.40;;
15567;SDS011;7885;42.596;23.044;2023-02-28T13:23:40;35.37;;;23.10;;
15567;SDS011;7885;42.596;23.044;2023-02-28T13:26:22;35.07;;;24.17;;
15567;SDS011;7885;42.596;23.044;2023-02-28T13:35:13;36.67;;;24.63;;
15567;SDS011;7885;42.596;23.044;2023-02-28T13:37:42;36.50;;;22.33;;
15567;SDS011;7885;42.596;23.044;2023-02-28T13:43:02;36.67;;;21.33;;
15567;SDS011;7885;42.596;23.044;2023-02-28T13:45:31;33.60;;;21.90;;
15567;SDS011;7885;42.596;23.044;2023-02-28T13:48:03;30.57;;;22.53;;
15567;SDS011;7885;42.596;23.044;2023-02-28T13:50:40;33.67;;;21.57;;
15567;SDS011;7885;42.596;23.044;2023-02-28T13:56:16;32.23;;;22.60;;
15567;SDS011;7885;42.596;23.044;2023-02-28T13:58:54;31.13;;;18.07;;
15567;SDS011;7885;42.596;23.044;2023-02-28T14:01:34;30.10;;;17.60;;
15567;SDS011;7885;42.596;23.044;2023-02-28T14:07:15;27.87;;;17.27;;
15567;SDS011;7885;42.596;23.044;2023-02-28T14:09:45;29.50;;;17.90;;
15567;SDS011;7885;42.596;23.044;2023-02-28T14:18:28;28.37;;;18.73;;
15567;SDS011;7885;42.596;23.044;2023-02-28T14:20:58;27.73;;;15.37;;
15567;SDS011;7885;42.596;23.044;2023-02-28T14:26:35;22.83;;;13.43;;
15567;SDS011;7885;42.596;23.044;2023-02-28T14:29:27;20.10;;;13.23;;
15567;SDS011;7885;42.596;23.044;2023-02-28T14:32:05;25.00;;;13.67;;
15567;SDS011;7885;42.596;23.044;2023-02-28T14:34:43;28.00;;;14.63;;
15567;SDS011;7885;42.596;23.044;2023-02-28T14:37:19;25.07;;;15.97;;
15567;SDS011;7885;42.596;23.044;2023-02-28T14:39:50;26.33;;;14.43;;
15567;SDS011;7885;42.596;23.044;2023-02-28T14:42:28;29.90;;;14.73;;
15567;SDS011;7885;42.596;23.044;2023-02-28T14:44:56;24.80;;;14.47;;
15567;SDS011;7885;42.596;23.044;2023-02-28T14:47:23;23.73;;;14.30;;
15567;SDS011;7885;42.596;23.044;2023-02-28T14:49:55;28.73;;;14.80;;
15567;SDS011;7885;42.596;23.044;2023-02-28T14:52:22;26.10;;;14.83;;
15567;SDS011;7885;42.596;23.044;2023-02-28T14:54:52;25.47;;;15.77;;
15567;SDS011;7885;42.596;23.044;2023-02-28T14:57:22;24.07;;;15.40;;
15567;SDS011;7885;42.596;23.044;2023-02-28T14:59:57;23.20;;;14.63;;
15567;SDS011;7885;42.596;23.044;2023-02-28T15:02:31;28.77;;;15.17;;
15567;SDS011;7885;42.596;23.044;2023-02-28T15:05:10;30.67;;;14.77;;
15567;SDS011;7885;42.596;23.044;2023-02-28T15:07:46;25.87;;;14.80;;
15567;SDS011;7885;42.596;23.044;2023-02-28T15:10:16;27.37;;;14.87;;
15567;SDS011;7885;42.596;23.044;2023-02-28T15:12:48;28.50;;;16.50;;
15567;SDS011;7885;42.596;23.044;2023-02-28T15:15:18;26.20;;;15.87;;
15567;SDS011;7885;42.596;23.044;2023-02-28T15:17:48;27.30;;;14.63;;
15567;SDS011;7885;42.596;23.044;2023-02-28T15:20:20;27.77;;;14.57;;
15567;SDS011;7885;42.596;23.044;2023-02-28T15:22:47;26.63;;;13.60;;
15567;SDS011;7885;42.596;23.044;2023-02-28T15:25:18;25.10;;;14.20;;
15567;SDS011;7885;42.596;23.044;2023-02-28T15:27:48;23.37;;;11.70;;
15567;SDS011;7885;42.596;23.044;2023-02-28T15:30:17;22.47;;;12.30;;
15567;SDS011;7885;42.596;23.044;2023-02-28T15:33:01;23.97;;;12.57;;
15567;SDS011;7885;42.596;23.044;2023-02-28T15:35:32;19.23;;;10.93;;
15567;SDS011;7885;42.596;23.044;2023-02-28T15:38:00;21.47;;;11.13;;
15567;SDS011;7885;42.596;23.044;2023-02-28T15:40:30;18.70;;;10.30;;
15567;SDS011;7885;42.596;23.044;2023-02-28T15:43:12;20.87;;;11.13;;